Imagination — C6FN2 — position and weather

sailwx.info

Track history (hours):
 
Tides and Currents Weather Stations Pressure Air Temp Water Temp Dewpoint Dewpoint Depression Visibility Wind Speed Wind Dir Waves Ship Positions

Imagination

Operator: Carnival Cruise Lines

Last reported at 2017-Feb-21 13:00 UTC. Time now 2017-Feb-22 04:24 UTC.
Position N 31°48' W 116°48'.

Type: Ship. MMSI: 309933000.

Wind from 230 at 3 knots

Barometer 1028.3 mb
Air temperature 14.0 ° C
Visibility: greater than 10.8 NM
Dewpoint 12.3 ° C
Water temperature 15.0 ° C

Date/timePositionNaut miles runAvg speedWind from/ knotsBaromVisibWave heightAir tempDewpointWater temp
2017-Feb-21 13:00N 31°48' W 116°48'1215.4 230 / 31028.310.8 14.012.315.0
2017-Feb-21 12:12N 31°56' W 116°58'7 8.1
2017-Feb-21 11:23N 31°59' W 117°06'7 8.0
2017-Feb-21 10:31N 32°01' W 117°13'8 8.3
2017-Feb-21 09:34N 32°07' W 117°20'3 6.0
2017-Feb-21 09:00N 32°06' W 117°24'819.0 010 / 141029.310.8 14.012.316.0
2017-Feb-21 08:33N 32°14' W 117°28'1010.0
2017-Feb-21 07:33N 32°22' W 117°34'1010.5
2017-Feb-21 06:34N 32°32' W 117°37'10 9.7
2017-Feb-21 05:33N 32°38' W 117°47'1110.7
2017-Feb-21 04:33N 32°47' W 117°53'1010.5
2017-Feb-21 03:34N 32°56' W 117°59'1010.3
2017-Feb-21 02:34N 33°05' W 118°06'1010.1
2017-Feb-21 01:33N 33°14' W 118°11'9 9.0
2017-Feb-21 00:33N 33°21' W 118°19'0 0.4
2017-Feb-20 23:31N 33°21' W 118°19'0 0.0
2017-Feb-20 21:30N 33°21' W 118°19'0 0.0
2017-Feb-20 20:29N 33°21' W 118°19'0 0.1
2017-Feb-20 19:32N 33°21' W 118°19'0 0.1
2017-Feb-20 18:33N 33°21' W 118°19'0 0.0
2017-Feb-20 17:33N 33°21' W 118°19'0 0.0
2017-Feb-20 16:33N 33°21' W 118°19'0 0.0
2017-Feb-20 15:33N 33°21' W 118°19'4 3.9
2017-Feb-20 14:34N 33°18' W 118°17'7 7.2
2017-Feb-20 13:33N 33°10' W 118°17'7 7.0
2017-Feb-20 12:33N 33°04' W 118°15'7 7.1
2017-Feb-20 11:33N 32°59' W 118°09'7 7.2
2017-Feb-20 10:33N 32°54' W 118°02'6 6.0
2017-Feb-20 09:33N 32°54' W 117°55'1 1.7
2017-Feb-20 09:00N 32°54' W 117°54'716.4 210 / 61025.310.8 12.010.215.3
2017-Feb-20 08:33N 33°00' W 117°58'7 7.1
2017-Feb-20 07:33N 33°07' W 118°01'7 7.2
2017-Feb-20 06:33N 33°14' W 118°04'7 6.9
2017-Feb-20 05:33N 33°20' W 118°07'7 7.0
2017-Feb-20 04:33N 33°27' W 118°10'7 7.4
2017-Feb-20 03:33N 33°34' W 118°13'9 9.0
2017-Feb-20 02:33N 33°43' W 118°11'2 0.2
2017-Feb-19 15:30N 33°45' W 118°11'0 0.0
2017-Feb-19 13:17N 33°45' W 118°11'0 0.4
2017-Feb-19 12:33N 33°45' W 118°11'1111.3
2017-Feb-19 11:33N 33°34' W 118°09'9 8.7
2017-Feb-19 10:33N 33°26' W 118°05'7 6.7
2017-Feb-19 09:33N 33°19' W 118°02'6 6.4
2017-Feb-19 08:33N 33°13' W 118°02'4 3.5
2017-Feb-19 07:28N 33°10' W 118°04'6 6.4
2017-Feb-19 06:33N 33°15' W 118°07'3 5.0
2017-Feb-19 06:00N 33°18' W 118°06'511.0 270 / 121009.210.8 13.0 9.415.3
2017-Feb-19 05:33N 33°21' W 118°10'7 6.6
2017-Feb-19 04:33N 33°28' W 118°13'7 5.2
2017-Feb-19 03:09N 33°31' W 118°20'4 6.7
2017-Feb-19 02:33N 33°28' W 118°18'6 6.4
2017-Feb-19 01:34N 33°22' W 118°15'6 5.8
2017-Feb-19 00:34N 33°17' W 118°11'8 7.5
2017-Feb-18 23:34N 33°11' W 118°06'7 6.9
2017-Feb-18 22:33N 33°05' W 118°01'8 7.8
2017-Feb-18 21:33N 32°60' W 117°54'813.9
2017-Feb-18 21:00N 32°54' W 117°48'3 5.9 280 / 41005.210.8 14.010.515.4
2017-Feb-18 20:33N 32°52' W 117°50'9 8.8
2017-Feb-18 19:34N 32°43' W 117°48'8 8.3
2017-Feb-18 18:34N 32°36' W 117°45'7 7.0
2017-Feb-18 17:33N 32°30' W 117°40'7 6.8
2017-Feb-18 16:33N 32°24' W 117°36'7 6.7
2017-Feb-18 15:34N 32°18' W 117°33'53 8.0
2017-Feb-18 09:00N 31°48' W 116°42'27 1.3 100 / 151004.210.8 12.0 8.315.1
2017-Feb-17 12:33N 32°01' W 117°10'1212.0
2017-Feb-17 11:33N 32°07' W 117°22'1212.3
2017-Feb-17 10:33N 32°16' W 117°33'1312.6
2017-Feb-17 09:33N 32°28' W 117°35'2 3.5
2017-Feb-17 09:00N 32°30' W 117°36'920.5 180 / 121016.210.8 14.010.515.8
2017-Feb-17 08:33N 32°36' W 117°43'1212.4
2017-Feb-17 07:33N 32°48' W 117°49'1312.8
2017-Feb-17 06:33N 32°60' W 117°54'1312.6
2017-Feb-17 05:33N 33°11' W 118°01'1212.4
2017-Feb-17 04:33N 33°22' W 118°08'1212.0
2017-Feb-17 03:33N 33°33' W 118°13'10 9.9
2017-Feb-17 02:33N 33°43' W 118°11'2 1.8
2017-Feb-17 01:32N 33°45' W 118°11'0 0.0
2017-Feb-17 00:32N 33°45' W 118°11'0 0.0
2017-Feb-16 23:32N 33°45' W 118°11'0 0.0
2017-Feb-16 22:28N 33°45' W 118°11'0 0.0
2017-Feb-16 21:31N 33°45' W 118°11'0 0.0
2017-Feb-16 20:33N 33°45' W 118°11'0 0.0
2017-Feb-16 19:33N 33°45' W 118°11'0 0.0
2017-Feb-16 18:32N 33°45' W 118°11'0 0.0
2017-Feb-16 17:32N 33°45' W 118°11'0 0.0
2017-Feb-16 16:32N 33°45' W 118°11'0 0.0
2017-Feb-16 15:31N 33°45' W 118°11'0 0.0
2017-Feb-16 14:31N 33°45' W 118°11'0 0.3
2017-Feb-16 13:33N 33°45' W 118°11'7 6.6
2017-Feb-16 12:33N 33°38' W 118°10'7 6.7
2017-Feb-16 11:33N 33°32' W 118°08'7 6.6
2017-Feb-16 10:33N 33°26' W 118°05'7 6.7
2017-Feb-16 09:33N 33°19' W 118°02'813.4
2017-Feb-16 09:00N 33°12' W 118°00'1 2.8 310 / 71021.310.8 13.011.315.7
2017-Feb-16 08:33N 33°13' W 117°59'7 6.7
2017-Feb-16 07:33N 33°07' W 117°56'7 6.9
2017-Feb-16 06:33N 33°00' W 117°53'7 6.7
2017-Feb-16 05:33N 32°54' W 117°50'7 6.8
2017-Feb-16 04:33N 32°48' W 117°47'7 6.9
2017-Feb-16 03:33N 32°42' W 117°43'7 7.1
2017-Feb-16 02:33N 32°36' W 117°38'6 6.4
2017-Feb-16 01:33N 32°30' W 117°36'7 7.0
2017-Feb-16 00:33N 32°23' W 117°37'7 7.0
2017-Feb-15 23:33N 32°16' W 117°36'7 7.0
2017-Feb-15 22:33N 32°09' W 117°36'7 7.0
2017-Feb-15 21:33N 32°02' W 117°37'7 7.0
2017-Feb-15 20:31N 31°55' W 117°37'6 6.5
2017-Feb-15 19:33N 31°49' W 117°40'8 7.6
2017-Feb-15 18:33N 31°48' W 117°49'7 6.8
2017-Feb-15 17:33N 31°46' W 117°56'7 6.8
2017-Feb-15 16:33N 31°45' W 118°04'7 6.9
2017-Feb-15 15:33N 31°42' W 118°12'7 6.7
2017-Feb-15 14:32N 31°36' W 118°11'7 6.7
2017-Feb-15 13:33N 31°35' W 118°03'7 7.2
2017-Feb-15 12:33N 31°38' W 117°55'7 7.0
2017-Feb-15 11:33N 31°39' W 117°47'8 6.9
2017-Feb-15 10:23N 31°42' W 117°38'7 7.0
2017-Feb-15 09:25N 31°43' W 117°31'1637.2
2017-Feb-15 09:00N 31°42' W 117°12'21 1.0 360 / 161022.310.8 14.010.516.2
2017-Feb-14 13:20N 31°55' W 116°53'6 8.3
2017-Feb-14 12:33N 31°57' W 116°60'9 8.2
2017-Feb-14 11:30N 31°60' W 117°09'8 8.0
2017-Feb-14 10:31N 32°04' W 117°17'8 8.0
2017-Feb-14 09:33N 32°09' W 117°24'3 4.8
2017-Feb-14 09:00N 32°12' W 117°24'614.7 250 / 61021.310.8 14.010.515.7
2017-Feb-14 08:33N 32°15' W 117°31'10 9.8
2017-Feb-14 07:34N 32°23' W 117°37'10 9.9
2017-Feb-14 06:33N 32°31' W 117°43'1010.2
2017-Feb-14 05:34N 32°40' W 117°50'1010.3
2017-Feb-14 04:33N 32°49' W 117°56'1010.3
2017-Feb-14 03:33N 32°58' W 118°02'10 9.9
2017-Feb-14 02:33N 33°07' W 118°07'1010.1
2017-Feb-14 01:33N 33°16' W 118°13'7 7.1
2017-Feb-14 00:33N 33°21' W 118°19'0 0.0
2017-Feb-13 23:32N 33°21' W 118°19'0 0.1
2017-Feb-13 22:32N 33°21' W 118°19'0 0.1
2017-Feb-13 21:32N 33°21' W 118°19'0 0.0
2017-Feb-13 20:28N 33°21' W 118°19'0 0.0
2017-Feb-13 19:31N 33°21' W 118°19'0 0.0
2017-Feb-13 18:30N 33°21' W 118°19'0 0.0
2017-Feb-13 17:33N 33°21' W 118°19'0 0.0
2017-Feb-13 16:32N 33°21' W 118°19'0 0.1
2017-Feb-13 15:32N 33°21' W 118°19'4 3.8
2017-Feb-13 14:33N 33°18' W 118°17'7 7.1
2017-Feb-13 13:33N 33°11' W 118°17'7 6.8
2017-Feb-13 12:33N 33°04' W 118°15'7 6.9
2017-Feb-13 11:33N 32°59' W 118°09'7 6.9
2017-Feb-13 10:33N 32°55' W 118°03'6 5.7
2017-Feb-13 09:33N 32°54' W 117°56'2 3.3
2017-Feb-13 09:00N 32°54' W 117°54'614.5 310 / 121020.310.8 15.011.615.4
2017-Feb-13 08:33N 32°60' W 117°57'7 7.1
2017-Feb-13 07:33N 33°07' W 117°60'7 6.9
2017-Feb-13 06:33N 33°13' W 118°02'2 3.8
2017-Feb-13 06:00N 33°12' W 118°00'920.6 300 / 201021.310.8 15.011.615.5
2017-Feb-13 05:33N 33°19' W 118°06'7 7.4
2017-Feb-13 04:33N 33°26' W 118°09'7 7.1
2017-Feb-13 03:33N 33°33' W 118°12'9 9.2
2017-Feb-13 02:33N 33°42' W 118°11'3 2.7
2017-Feb-13 01:32N 33°45' W 118°11'0 0.0
2017-Feb-13 00:31N 33°45' W 118°11'0 0.0
2017-Feb-12 22:33N 33°45' W 118°11'0 0.0
2017-Feb-12 21:33N 33°45' W 118°11'0 0.0
2017-Feb-12 20:33N 33°45' W 118°11'0 0.0
2017-Feb-12 19:32N 33°45' W 118°11'0 0.0
2017-Feb-12 18:33N 33°45' W 118°11'0 0.0
2017-Feb-12 17:31N 33°45' W 118°11'0 0.0
2017-Feb-12 14:15N 33°45' W 118°11'0 0.4
2017-Feb-12 13:33N 33°45' W 118°11'7 6.7
2017-Feb-12 12:33N 33°38' W 118°10'7 7.0
2017-Feb-12 11:33N 33°32' W 118°08'7 6.9
2017-Feb-12 10:33N 33°25' W 118°05'7 7.1
2017-Feb-12 09:33N 33°18' W 118°02'711.8
2017-Feb-12 09:00N 33°12' W 118°00'1 2.5 300 / 41022.310.8 12.0 8.315.4
2017-Feb-12 08:33N 33°12' W 117°59'7 6.9
2017-Feb-12 07:33N 33°06' W 117°56'7 6.9
2017-Feb-12 06:33N 32°59' W 117°53'7 6.9
2017-Feb-12 05:33N 32°53' W 117°50'7 7.3
2017-Feb-12 04:33N 32°45' W 117°49'7 7.3
2017-Feb-12 03:33N 32°38' W 117°48'7 7.2
2017-Feb-12 02:33N 32°31' W 117°48'3 2.6
2017-Feb-12 01:33N 32°28' W 117°47'0 0.5
2017-Feb-12 00:33N 32°28' W 117°48'0 0.5
2017-Feb-11 23:33N 32°28' W 117°48'1 0.9
2017-Feb-11 22:33N 32°28' W 117°48'7 6.9
2017-Feb-11 21:33N 32°23' W 117°42'6 6.4
2017-Feb-11 20:33N 32°18' W 117°37'7 6.6
2017-Feb-11 19:32N 32°11' W 117°36'36 7.8
2017-Feb-11 15:00N 31°42' W 118°00'   280 / 151021.210.8 15.013.316.0
Track history (hours):
 
Tides and Currents Weather Stations Pressure Air Temp Water Temp Dewpoint Dewpoint Depression Visibility Wind Speed Wind Dir Waves Ship Positions

Imagination

Operator: Carnival Cruise Lines

Last reported at 2017-Feb-21 13:00 UTC. Time now 2017-Feb-22 04:24 UTC.
Position N 31°48' W 116°48'.

Type: Ship. MMSI: 309933000.

Wind from 230 at 3 knots

Barometer 1028.3 mb
Air temperature 14.0 ° C
Visibility: greater than 10.8 NM
Dewpoint 12.3 ° C
Water temperature 15.0 ° C

Date/timePositionNaut miles runAvg speedWind from/ knotsBaromVisibWave heightAir tempDewpointWater temp
2017-Feb-21 13:00N 31°48' W 116°48'1215.4 230 / 31028.310.8 14.012.315.0
2017-Feb-21 12:12N 31°56' W 116°58'7 8.1
2017-Feb-21 11:23N 31°59' W 117°06'7 8.0
2017-Feb-21 10:31N 32°01' W 117°13'8 8.3
2017-Feb-21 09:34N 32°07' W 117°20'3 6.0
2017-Feb-21 09:00N 32°06' W 117°24'819.0 010 / 141029.310.8 14.012.316.0
2017-Feb-21 08:33N 32°14' W 117°28'1010.0
2017-Feb-21 07:33N 32°22' W 117°34'1010.5
2017-Feb-21 06:34N 32°32' W 117°37'10 9.7
2017-Feb-21 05:33N 32°38' W 117°47'1110.7
2017-Feb-21 04:33N 32°47' W 117°53'1010.5
2017-Feb-21 03:34N 32°56' W 117°59'1010.3
2017-Feb-21 02:34N 33°05' W 118°06'1010.1
2017-Feb-21 01:33N 33°14' W 118°11'9 9.0
2017-Feb-21 00:33N 33°21' W 118°19'0 0.4
2017-Feb-20 23:31N 33°21' W 118°19'0 0.0
2017-Feb-20 21:30N 33°21' W 118°19'0 0.0
2017-Feb-20 20:29N 33°21' W 118°19'0 0.1
2017-Feb-20 19:32N 33°21' W 118°19'0 0.1
2017-Feb-20 18:33N 33°21' W 118°19'0 0.0
2017-Feb-20 17:33N 33°21' W 118°19'0 0.0
2017-Feb-20 16:33N 33°21' W 118°19'0 0.0
2017-Feb-20 15:33N 33°21' W 118°19'4 3.9
2017-Feb-20 14:34N 33°18' W 118°17'7 7.2
2017-Feb-20 13:33N 33°10' W 118°17'7 7.0
2017-Feb-20 12:33N 33°04' W 118°15'7 7.1
2017-Feb-20 11:33N 32°59' W 118°09'7 7.2
2017-Feb-20 10:33N 32°54' W 118°02'6 6.0
2017-Feb-20 09:33N 32°54' W 117°55'1 1.7
2017-Feb-20 09:00N 32°54' W 117°54'716.4 210 / 61025.310.8 12.010.215.3
2017-Feb-20 08:33N 33°00' W 117°58'7 7.1
2017-Feb-20 07:33N 33°07' W 118°01'7 7.2
2017-Feb-20 06:33N 33°14' W 118°04'7 6.9
2017-Feb-20 05:33N 33°20' W 118°07'7 7.0
2017-Feb-20 04:33N 33°27' W 118°10'7 7.4
2017-Feb-20 03:33N 33°34' W 118°13'9 9.0
2017-Feb-20 02:33N 33°43' W 118°11'2 0.2
2017-Feb-19 15:30N 33°45' W 118°11'0 0.0
2017-Feb-19 13:17N 33°45' W 118°11'0 0.4
2017-Feb-19 12:33N 33°45' W 118°11'1111.3
2017-Feb-19 11:33N 33°34' W 118°09'9 8.7
2017-Feb-19 10:33N 33°26' W 118°05'7 6.7
2017-Feb-19 09:33N 33°19' W 118°02'6 6.4
2017-Feb-19 08:33N 33°13' W 118°02'4 3.5
2017-Feb-19 07:28N 33°10' W 118°04'6 6.4
2017-Feb-19 06:33N 33°15' W 118°07'3 5.0
2017-Feb-19 06:00N 33°18' W 118°06'511.0 270 / 121009.210.8 13.0 9.415.3
2017-Feb-19 05:33N 33°21' W 118°10'7 6.6
2017-Feb-19 04:33N 33°28' W 118°13'7 5.2
2017-Feb-19 03:09N 33°31' W 118°20'4 6.7
2017-Feb-19 02:33N 33°28' W 118°18'6 6.4
2017-Feb-19 01:34N 33°22' W 118°15'6 5.8
2017-Feb-19 00:34N 33°17' W 118°11'8 7.5
2017-Feb-18 23:34N 33°11' W 118°06'7 6.9
2017-Feb-18 22:33N 33°05' W 118°01'8 7.8
2017-Feb-18 21:33N 32°60' W 117°54'813.9
2017-Feb-18 21:00N 32°54' W 117°48'3 5.9 280 / 41005.210.8 14.010.515.4
2017-Feb-18 20:33N 32°52' W 117°50'9 8.8
2017-Feb-18 19:34N 32°43' W 117°48'8 8.3
2017-Feb-18 18:34N 32°36' W 117°45'7 7.0
2017-Feb-18 17:33N 32°30' W 117°40'7 6.8
2017-Feb-18 16:33N 32°24' W 117°36'7 6.7
2017-Feb-18 15:34N 32°18' W 117°33'53 8.0
2017-Feb-18 09:00N 31°48' W 116°42'27 1.3 100 / 151004.210.8 12.0 8.315.1
2017-Feb-17 12:33N 32°01' W 117°10'1212.0
2017-Feb-17 11:33N 32°07' W 117°22'1212.3
2017-Feb-17 10:33N 32°16' W 117°33'1312.6
2017-Feb-17 09:33N 32°28' W 117°35'2 3.5
2017-Feb-17 09:00N 32°30' W 117°36'920.5 180 / 121016.210.8 14.010.515.8
2017-Feb-17 08:33N 32°36' W 117°43'1212.4
2017-Feb-17 07:33N 32°48' W 117°49'1312.8
2017-Feb-17 06:33N 32°60' W 117°54'1312.6
2017-Feb-17 05:33N 33°11' W 118°01'1212.4
2017-Feb-17 04:33N 33°22' W 118°08'1212.0
2017-Feb-17 03:33N 33°33' W 118°13'10 9.9
2017-Feb-17 02:33N 33°43' W 118°11'2 1.8
2017-Feb-17 01:32N 33°45' W 118°11'0 0.0
2017-Feb-17 00:32N 33°45' W 118°11'0 0.0
2017-Feb-16 23:32N 33°45' W 118°11'0 0.0
2017-Feb-16 22:28N 33°45' W 118°11'0 0.0
2017-Feb-16 21:31N 33°45' W 118°11'0 0.0
2017-Feb-16 20:33N 33°45' W 118°11'0 0.0
2017-Feb-16 19:33N 33°45' W 118°11'0 0.0
2017-Feb-16 18:32N 33°45' W 118°11'0 0.0
2017-Feb-16 17:32N 33°45' W 118°11'0 0.0
2017-Feb-16 16:32N 33°45' W 118°11'0 0.0
2017-Feb-16 15:31N 33°45' W 118°11'0 0.0
2017-Feb-16 14:31N 33°45' W 118°11'0 0.3
2017-Feb-16 13:33N 33°45' W 118°11'7 6.6
2017-Feb-16 12:33N 33°38' W 118°10'7 6.7
2017-Feb-16 11:33N 33°32' W 118°08'7 6.6
2017-Feb-16 10:33N 33°26' W 118°05'7 6.7
2017-Feb-16 09:33N 33°19' W 118°02'813.4
2017-Feb-16 09:00N 33°12' W 118°00'1 2.8 310 / 71021.310.8 13.011.315.7
2017-Feb-16 08:33N 33°13' W 117°59'7 6.7
2017-Feb-16 07:33N 33°07' W 117°56'7 6.9
2017-Feb-16 06:33N 33°00' W 117°53'7 6.7
2017-Feb-16 05:33N 32°54' W 117°50'7 6.8
2017-Feb-16 04:33N 32°48' W 117°47'7 6.9
2017-Feb-16 03:33N 32°42' W 117°43'7 7.1
2017-Feb-16 02:33N 32°36' W 117°38'6 6.4
2017-Feb-16 01:33N 32°30' W 117°36'7 7.0
2017-Feb-16 00:33N 32°23' W 117°37'7 7.0
2017-Feb-15 23:33N 32°16' W 117°36'7 7.0
2017-Feb-15 22:33N 32°09' W 117°36'7 7.0
2017-Feb-15 21:33N 32°02' W 117°37'7 7.0
2017-Feb-15 20:31N 31°55' W 117°37'6 6.5
2017-Feb-15 19:33N 31°49' W 117°40'8 7.6
2017-Feb-15 18:33N 31°48' W 117°49'7 6.8
2017-Feb-15 17:33N 31°46' W 117°56'7 6.8
2017-Feb-15 16:33N 31°45' W 118°04'7 6.9
2017-Feb-15 15:33N 31°42' W 118°12'7 6.7
2017-Feb-15 14:32N 31°36' W 118°11'7 6.7
2017-Feb-15 13:33N 31°35' W 118°03'7 7.2
2017-Feb-15 12:33N 31°38' W 117°55'7 7.0
2017-Feb-15 11:33N 31°39' W 117°47'8 6.9
2017-Feb-15 10:23N 31°42' W 117°38'7 7.0
2017-Feb-15 09:25N 31°43' W 117°31'1637.2
2017-Feb-15 09:00N 31°42' W 117°12'21 1.0 360 / 161022.310.8 14.010.516.2
2017-Feb-14 13:20N 31°55' W 116°53'6 8.3
2017-Feb-14 12:33N 31°57' W 116°60'9 8.2
2017-Feb-14 11:30N 31°60' W 117°09'8 8.0
2017-Feb-14 10:31N 32°04' W 117°17'8 8.0
2017-Feb-14 09:33N 32°09' W 117°24'3 4.8
2017-Feb-14 09:00N 32°12' W 117°24'614.7 250 / 61021.310.8 14.010.515.7
2017-Feb-14 08:33N 32°15' W 117°31'10 9.8
2017-Feb-14 07:34N 32°23' W 117°37'10 9.9
2017-Feb-14 06:33N 32°31' W 117°43'1010.2
2017-Feb-14 05:34N 32°40' W 117°50'1010.3
2017-Feb-14 04:33N 32°49' W 117°56'1010.3
2017-Feb-14 03:33N 32°58' W 118°02'10 9.9
2017-Feb-14 02:33N 33°07' W 118°07'1010.1
2017-Feb-14 01:33N 33°16' W 118°13'7 7.1
2017-Feb-14 00:33N 33°21' W 118°19'0 0.0
2017-Feb-13 23:32N 33°21' W 118°19'0 0.1
2017-Feb-13 22:32N 33°21' W 118°19'0 0.1
2017-Feb-13 21:32N 33°21' W 118°19'0 0.0
2017-Feb-13 20:28N 33°21' W 118°19'0 0.0
2017-Feb-13 19:31N 33°21' W 118°19'0 0.0
2017-Feb-13 18:30N 33°21' W 118°19'0 0.0
2017-Feb-13 17:33N 33°21' W 118°19'0 0.0
2017-Feb-13 16:32N 33°21' W 118°19'0 0.1
2017-Feb-13 15:32N 33°21' W 118°19'4 3.8
2017-Feb-13 14:33N 33°18' W 118°17'7 7.1
2017-Feb-13 13:33N 33°11' W 118°17'7 6.8
2017-Feb-13 12:33N 33°04' W 118°15'7 6.9
2017-Feb-13 11:33N 32°59' W 118°09'7 6.9
2017-Feb-13 10:33N 32°55' W 118°03'6 5.7
2017-Feb-13 09:33N 32°54' W 117°56'2 3.3
2017-Feb-13 09:00N 32°54' W 117°54'614.5 310 / 121020.310.8 15.011.615.4
2017-Feb-13 08:33N 32°60' W 117°57'7 7.1
2017-Feb-13 07:33N 33°07' W 117°60'7 6.9
2017-Feb-13 06:33N 33°13' W 118°02'2 3.8
2017-Feb-13 06:00N 33°12' W 118°00'920.6 300 / 201021.310.8 15.011.615.5
2017-Feb-13 05:33N 33°19' W 118°06'7 7.4
2017-Feb-13 04:33N 33°26' W 118°09'7 7.1
2017-Feb-13 03:33N 33°33' W 118°12'9 9.2
2017-Feb-13 02:33N 33°42' W 118°11'3 2.7
2017-Feb-13 01:32N 33°45' W 118°11'0 0.0
2017-Feb-13 00:31N 33°45' W 118°11'0 0.0
2017-Feb-12 22:33N 33°45' W 118°11'0 0.0
2017-Feb-12 21:33N 33°45' W 118°11'0 0.0
2017-Feb-12 20:33N 33°45' W 118°11'0 0.0
2017-Feb-12 19:32N 33°45' W 118°11'0 0.0
2017-Feb-12 18:33N 33°45' W 118°11'0 0.0
2017-Feb-12 17:31N 33°45' W 118°11'0 0.0
2017-Feb-12 14:15N 33°45' W 118°11'0 0.4
2017-Feb-12 13:33N 33°45' W 118°11'7 6.7
2017-Feb-12 12:33N 33°38' W 118°10'7 7.0
2017-Feb-12 11:33N 33°32' W 118°08'7 6.9
2017-Feb-12 10:33N 33°25' W 118°05'7 7.1
2017-Feb-12 09:33N 33°18' W 118°02'711.8
2017-Feb-12 09:00N 33°12' W 118°00'1 2.5 300 / 41022.310.8 12.0 8.315.4
2017-Feb-12 08:33N 33°12' W 117°59'7 6.9
2017-Feb-12 07:33N 33°06' W 117°56'7 6.9
2017-Feb-12 06:33N 32°59' W 117°53'7 6.9
2017-Feb-12 05:33N 32°53' W 117°50'7 7.3
2017-Feb-12 04:33N 32°45' W 117°49'7 7.3
2017-Feb-12 03:33N 32°38' W 117°48'7 7.2
2017-Feb-12 02:33N 32°31' W 117°48'3 2.6
2017-Feb-12 01:33N 32°28' W 117°47'0 0.5
2017-Feb-12 00:33N 32°28' W 117°48'0 0.5
2017-Feb-11 23:33N 32°28' W 117°48'1 0.9
2017-Feb-11 22:33N 32°28' W 117°48'7 6.9
2017-Feb-11 21:33N 32°23' W 117°42'6 6.4
2017-Feb-11 20:33N 32°18' W 117°37'7 6.6
2017-Feb-11 19:32N 32°11' W 117°36'36 7.8
2017-Feb-11 15:00N 31°42' W 118°00'   280 / 151021.210.8 15.013.316.0

Dump ship's entire track history